createdAt,value
2017-10-29T00:00:03.359Z,89.63
2017-10-29T00:02:31.742Z,90.06
2017-10-29T00:05:00.142Z,89.74
2017-10-29T00:07:28.494Z,89.29
2017-10-29T00:09:56.859Z,88.90
2017-10-29T00:12:25.181Z,88.02
2017-10-29T00:14:53.527Z,87.00
2017-10-29T00:17:21.887Z,87.07
2017-10-29T00:19:50.253Z,86.62
2017-10-29T00:22:18.596Z,86.24
2017-10-29T00:24:46.923Z,84.67
2017-10-29T00:27:15.294Z,84.20
2017-10-29T00:29:43.681Z,84.35
2017-10-29T00:32:13.432Z,85.22
2017-10-29T00:34:41.763Z,85.59
2017-10-29T00:37:10.968Z,85.50
2017-10-29T00:39:39.311Z,85.65
2017-10-29T00:42:08.411Z,85.77
2017-10-29T00:44:37.542Z,86.28
2017-10-29T00:47:05.899Z,86.77
2017-10-29T00:49:35.097Z,87.42
2017-10-29T00:52:03.607Z,87.16
2017-10-29T00:54:31.963Z,87.16
2017-10-29T00:57:00.295Z,87.10
2017-10-29T00:59:28.667Z,86.02
2017-10-29T01:01:57.005Z,85.75
2017-10-29T01:04:25.427Z,86.98
2017-10-29T01:06:53.777Z,87.78
2017-10-29T01:09:22.150Z,88.50
2017-10-29T01:11:50.519Z,89.05
2017-10-29T01:14:18.863Z,89.24
2017-10-29T01:16:47.254Z,89.22
2017-10-29T01:19:16.434Z,88.56
2017-10-29T01:21:44.857Z,87.16
2017-10-29T01:24:13.207Z,86.76
2017-10-29T01:26:41.514Z,86.91
2017-10-29T01:29:09.898Z,87.32
2017-10-29T01:31:38.322Z,87.33
2017-10-29T01:34:06.733Z,86.57
2017-10-29T01:36:35.141Z,86.25
2017-10-29T01:39:03.489Z,85.50
2017-10-29T01:41:32.606Z,84.30
2017-10-29T01:44:00.915Z,83.07
2017-10-29T01:46:29.225Z,83.82
2017-10-29T01:48:57.543Z,84.01
2017-10-29T01:51:25.863Z,84.43
2017-10-29T01:53:54.202Z,85.34
2017-10-29T01:56:22.525Z,84.48
2017-10-29T01:58:50.855Z,84.60
2017-10-29T02:01:19.174Z,86.05
2017-10-29T02:03:47.514Z,86.14
2017-10-29T02:06:15.847Z,85.67
2017-10-29T02:08:44.966Z,85.41
2017-10-29T02:11:13.278Z,85.19
2017-10-29T02:13:41.634Z,84.97
2017-10-29T02:16:09.956Z,82.94
2017-10-29T02:18:38.319Z,82.08
2017-10-29T02:21:06.696Z,82.84
2017-10-29T02:23:35.060Z,82.11
2017-10-29T02:26:03.416Z,82.56
2017-10-29T02:28:31.755Z,80.21
2017-10-29T02:31:00.164Z,78.64
2017-10-29T02:33:29.313Z,77.69
2017-10-29T02:35:57.657Z,77.25
2017-10-29T02:38:26.016Z,78.05
2017-10-29T02:40:55.183Z,78.71
2017-10-29T02:43:23.547Z,79.53
2017-10-29T02:45:51.860Z,80.12
2017-10-29T02:48:21.024Z,80.22
2017-10-29T02:50:49.380Z,80.97
2017-10-29T02:53:17.752Z,82.18
2017-10-29T02:55:46.139Z,82.48
2017-10-29T02:58:14.541Z,81.96
2017-10-29T03:00:42.963Z,80.71
2017-10-29T03:03:12.116Z,78.87
2017-10-29T03:05:40.479Z,78.79
2017-10-29T03:08:08.932Z,79.66
2017-10-29T03:10:37.297Z,80.16
2017-10-29T03:13:05.665Z,80.47
2017-10-29T03:15:34.025Z,80.68
2017-10-29T03:18:02.441Z,85.57
2017-10-29T03:20:30.769Z,90.74
2017-10-29T03:22:59.065Z,91.82
2017-10-29T03:25:27.377Z,91.51
2017-10-29T03:27:55.686Z,90.12
2017-10-29T03:30:24.031Z,89.21
2017-10-29T03:32:52.366Z,90.57
2017-10-29T03:35:20.745Z,89.69
2017-10-29T03:37:49.045Z,85.44
2017-10-29T03:40:18.141Z,85.92
2017-10-29T03:42:47.230Z,84.22
2017-10-29T03:45:16.348Z,83.66
2017-10-29T03:47:44.684Z,84.56
2017-10-29T03:50:13.024Z,81.82
2017-10-29T03:52:41.376Z,80.44
2017-10-29T03:55:09.756Z,81.43
2017-10-29T03:57:38.127Z,81.16
2017-10-29T04:00:07.231Z,83.48
2017-10-29T04:02:35.646Z,85.10
2017-10-29T04:05:04.015Z,85.45
2017-10-29T04:07:32.367Z,87.19
2017-10-29T04:10:00.846Z,84.77
2017-10-29T04:12:29.232Z,81.92
2017-10-29T04:14:57.602Z,81.77
2017-10-29T04:17:25.985Z,82.74
2017-10-29T04:19:54.298Z,83.05
2017-10-29T04:22:22.602Z,82.75
2017-10-29T04:24:50.935Z,81.66
2017-10-29T04:27:19.304Z,83.28
2017-10-29T04:29:47.691Z,83.31
2017-10-29T04:32:16.061Z,83.98
2017-10-29T04:34:44.421Z,83.43
2017-10-29T04:37:13.590Z,84.98
2017-10-29T04:39:42.019Z,84.42
2017-10-29T04:42:10.437Z,83.09
2017-10-29T04:44:38.881Z,84.07
2017-10-29T04:47:07.234Z,83.12
2017-10-29T04:49:36.354Z,81.28
2017-10-29T04:52:04.807Z,77.36
2017-10-29T04:54:33.998Z,79.57
2017-10-29T04:57:02.307Z,78.89
2017-10-29T04:59:30.874Z,80.89
2017-10-29T05:01:59.987Z,79.16
2017-10-29T05:04:28.425Z,71.50
2017-10-29T05:06:56.812Z,73.00
2017-10-29T05:09:26.012Z,68.93
2017-10-29T05:11:55.106Z,68.23
2017-10-29T05:14:23.501Z,68.22
2017-10-29T05:16:51.882Z,68.97
2017-10-29T05:19:20.257Z,69.92
2017-10-29T05:21:49.501Z,70.59
2017-10-29T05:24:17.832Z,72.04
2017-10-29T05:26:46.993Z,74.34
2017-10-29T05:29:15.391Z,74.23
2017-10-29T05:31:43.739Z,74.62
2017-10-29T05:34:12.051Z,73.76
2017-10-29T05:36:41.154Z,72.55
2017-10-29T05:39:10.251Z,72.81
2017-10-29T05:41:39.382Z,73.09
2017-10-29T05:44:07.722Z,71.29
2017-10-29T05:46:36.066Z,74.61
2017-10-29T05:49:04.381Z,78.38
2017-10-29T05:51:33.531Z,80.18
2017-10-29T05:54:01.854Z,80.32
2017-10-29T05:56:30.960Z,78.22
2017-10-29T05:58:59.273Z,76.96
2017-10-29T06:01:27.628Z,73.31
2017-10-29T06:03:55.982Z,72.69
2017-10-29T06:06:24.349Z,73.37
2017-10-29T06:08:53.442Z,72.42
2017-10-29T06:11:21.822Z,72.73
2017-10-29T06:13:50.163Z,71.94
2017-10-29T06:16:18.493Z,71.86
2017-10-29T06:18:47.614Z,70.65
2017-10-29T06:21:15.956Z,71.09
2017-10-29T06:23:44.291Z,71.39
2017-10-29T06:26:12.642Z,71.16
2017-10-29T06:28:40.965Z,70.53
2017-10-29T06:31:09.304Z,71.40
2017-10-29T06:33:37.676Z,70.22
2017-10-29T06:36:06.029Z,69.10
2017-10-29T06:38:35.164Z,68.68
2017-10-29T06:41:03.530Z,68.36
2017-10-29T06:43:31.915Z,68.11
2017-10-29T06:46:00.263Z,68.28
2017-10-29T06:48:30.004Z,68.04
2017-10-29T06:50:58.375Z,68.28
2017-10-29T06:53:26.755Z,67.25
2017-10-29T06:55:55.102Z,67.54
2017-10-29T06:58:24.174Z,67.79
2017-10-29T07:00:52.554Z,68.37
2017-10-29T07:03:20.867Z,68.14
2017-10-29T07:05:49.200Z,67.78
2017-10-29T07:08:17.555Z,67.33
2017-10-29T07:10:45.884Z,67.12
2017-10-29T07:13:14.243Z,67.50
2017-10-29T07:15:42.559Z,67.75
2017-10-29T07:18:11.681Z,67.30
2017-10-29T07:20:40.117Z,72.26
2017-10-29T07:23:08.454Z,74.54
2017-10-29T07:25:36.822Z,77.08
2017-10-29T07:28:05.160Z,77.38
2017-10-29T07:30:34.281Z,75.64
2017-10-29T07:33:02.587Z,74.75
2017-10-29T07:35:30.918Z,73.76
2017-10-29T07:38:00.033Z,74.68
2017-10-29T07:40:28.393Z,74.50
2017-10-29T07:42:57.478Z,75.40
2017-10-29T07:45:26.585Z,76.73
2017-10-29T07:47:55.668Z,77.29
2017-10-29T07:50:24.770Z,77.90
2017-10-29T07:52:53.086Z,75.54
2017-10-29T07:55:21.450Z,74.76
2017-10-29T07:57:49.829Z,74.50
2017-10-29T08:00:18.178Z,73.92
2017-10-29T08:02:46.499Z,72.91
2017-10-29T08:05:14.829Z,74.45
2017-10-29T08:07:43.161Z,75.48
2017-10-29T08:10:11.504Z,75.67
2017-10-29T08:12:39.840Z,74.75
2017-10-29T08:15:08.165Z,74.28
2017-10-29T08:17:36.545Z,73.26
2017-10-29T08:20:04.924Z,73.01
2017-10-29T08:22:33.260Z,72.36
2017-10-29T08:25:01.566Z,71.71
2017-10-29T08:27:30.646Z,71.50
2017-10-29T08:29:58.975Z,72.07
2017-10-29T08:32:27.276Z,72.77
2017-10-29T08:34:55.623Z,73.34
2017-10-29T08:37:23.982Z,73.32
2017-10-29T08:39:53.337Z,73.11
2017-10-29T08:42:21.663Z,73.30
2017-10-29T08:44:50.143Z,73.47
2017-10-29T08:47:18.506Z,73.09
2017-10-29T08:49:47.603Z,72.04
2017-10-29T08:52:16.722Z,71.33
2017-10-29T08:54:45.085Z,66.21
2017-10-29T08:57:14.227Z,61.87
2017-10-29T08:59:42.663Z,62.77
2017-10-29T09:02:11.820Z,61.19
2017-10-29T09:04:40.151Z,61.43
2017-10-29T09:07:08.614Z,59.65
2017-10-29T09:09:36.955Z,59.24
2017-10-29T09:12:05.295Z,60.77
2017-10-29T09:14:33.631Z,63.01
2017-10-29T09:17:01.950Z,62.04
2017-10-29T09:19:30.288Z,61.10
2017-10-29T09:21:58.633Z,61.02
2017-10-29T09:24:27.020Z,59.56
2017-10-29T09:26:55.351Z,64.22
2017-10-29T09:29:23.684Z,65.70
2017-10-29T09:31:52.042Z,66.27
2017-10-29T09:34:20.427Z,66.57
2017-10-29T09:36:48.788Z,66.10
2017-10-29T09:39:17.115Z,66.14
2017-10-29T09:41:46.201Z,65.85
2017-10-29T09:44:14.523Z,65.35
2017-10-29T09:46:42.842Z,64.46
2017-10-29T09:49:11.176Z,65.37
2017-10-29T09:51:39.487Z,64.50
2017-10-29T09:54:07.818Z,64.33
2017-10-29T09:56:36.951Z,63.99
2017-10-29T09:59:05.308Z,62.72
2017-10-29T10:01:33.720Z,62.91
2017-10-29T10:04:02.034Z,62.26
2017-10-29T10:06:31.154Z,61.37
2017-10-29T10:08:59.489Z,61.75
2017-10-29T10:11:28.084Z,61.36
2017-10-29T10:13:56.432Z,60.57
2017-10-29T10:16:24.805Z,60.30
2017-10-29T10:18:53.148Z,59.45
2017-10-29T10:21:21.521Z,59.42
2017-10-29T10:23:49.840Z,60.05
2017-10-29T10:26:18.220Z,59.73
2017-10-29T10:28:46.527Z,59.19
2017-10-29T10:31:14.976Z,59.29
2017-10-29T10:33:43.349Z,57.62
2017-10-29T10:36:11.706Z,58.68
2017-10-29T10:38:40.057Z,59.10
2017-10-29T10:41:09.169Z,58.75
2017-10-29T10:43:37.482Z,58.67
2017-10-29T10:46:05.812Z,59.39
2017-10-29T10:48:34.154Z,60.17
2017-10-29T10:51:02.516Z,60.55
2017-10-29T10:53:30.841Z,60.39
2017-10-29T10:55:59.987Z,60.59
2017-10-29T10:58:28.655Z,59.74
2017-10-29T11:00:57.012Z,59.70
2017-10-29T11:03:25.368Z,60.06
2017-10-29T11:05:53.809Z,59.77
2017-10-29T11:08:22.283Z,59.66
2017-10-29T11:10:50.651Z,58.72
2017-10-29T11:13:18.986Z,60.55
2017-10-29T11:15:47.370Z,59.04
2017-10-29T11:18:16.462Z,58.31
2017-10-29T11:20:44.787Z,58.13
2017-10-29T11:23:13.144Z,59.52
2017-10-29T11:25:41.505Z,57.98
2017-10-29T11:28:10.695Z,58.65
2017-10-29T11:30:39.806Z,56.91
2017-10-29T11:33:08.157Z,58.01
2017-10-29T11:35:36.548Z,57.78
2017-10-29T11:38:04.948Z,57.66
2017-10-29T11:40:33.331Z,56.63
2017-10-29T11:43:01.660Z,56.71
2017-10-29T11:45:30.045Z,55.77
2017-10-29T11:47:58.479Z,56.13
2017-10-29T11:50:26.839Z,57.76
2017-10-29T11:52:55.154Z,55.17
2017-10-29T11:55:23.496Z,55.85
2017-10-29T11:57:51.844Z,55.28
2017-10-29T12:00:20.235Z,55.94
2017-10-29T12:02:48.594Z,56.06
2017-10-29T12:05:17.019Z,55.24
2017-10-29T12:07:45.407Z,56.41
2017-10-29T12:10:13.776Z,54.35
2017-10-29T12:12:42.174Z,55.82
2017-10-29T12:15:10.513Z,55.83
2017-10-29T12:17:39.750Z,55.88
2017-10-29T12:20:08.217Z,56.43
2017-10-29T12:22:36.592Z,54.99
2017-10-29T12:25:04.950Z,55.44
2017-10-29T12:27:34.097Z,53.93
2017-10-29T12:30:02.447Z,54.31
2017-10-29T12:32:30.934Z,54.72
2017-10-29T12:34:59.298Z,52.49
2017-10-29T12:37:27.693Z,54.13
2017-10-29T12:39:56.146Z,53.66
2017-10-29T12:42:25.239Z,53.81
2017-10-29T12:44:54.357Z,53.39
2017-10-29T12:47:22.752Z,52.98
2017-10-29T12:49:51.103Z,51.72
2017-10-29T12:52:20.298Z,50.56
2017-10-29T12:54:49.497Z,49.90
2017-10-29T12:57:17.859Z,49.20
2017-10-29T12:59:46.252Z,50.37
2017-10-29T13:02:15.337Z,48.38
2017-10-29T13:04:44.485Z,49.20
2017-10-29T13:07:12.864Z,51.40
2017-10-29T13:09:41.223Z,49.55
2017-10-29T13:12:09.598Z,48.62
2017-10-29T13:14:38.159Z,48.74
2017-10-29T13:17:07.357Z,49.11
2017-10-29T13:19:36.554Z,49.14
2017-10-29T13:22:05.770Z,49.78
2017-10-29T13:24:34.124Z,48.69
2017-10-29T13:27:03.240Z,49.10
2017-10-29T13:29:31.620Z,48.98
2017-10-29T13:32:00.551Z,47.04
2017-10-29T13:34:28.928Z,47.27
2017-10-29T13:36:57.311Z,47.55
2017-10-29T13:39:25.667Z,47.48
2017-10-29T13:41:53.998Z,47.24
2017-10-29T13:44:23.145Z,46.91
2017-10-29T13:46:51.491Z,47.38
2017-10-29T13:49:20.602Z,47.88
2017-10-29T13:51:48.895Z,46.64
2017-10-29T13:54:17.199Z,53.99
2017-10-29T13:56:45.499Z,61.30
2017-10-29T13:59:14.592Z,65.25
2017-10-29T14:01:42.899Z,67.60
2017-10-29T14:04:11.206Z,69.70
2017-10-29T14:06:39.515Z,71.44
2017-10-29T14:09:07.814Z,72.93
2017-10-29T14:11:36.875Z,74.23
2017-10-29T14:14:05.182Z,74.51
2017-10-29T14:16:34.245Z,75.42
2017-10-29T14:19:02.552Z,74.78
2017-10-29T14:21:31.615Z,74.53
2017-10-29T14:23:59.956Z,75.38
2017-10-29T14:26:28.258Z,75.51
2017-10-29T14:28:56.578Z,75.29
2017-10-29T14:31:25.643Z,75.50
2017-10-29T14:33:53.946Z,75.13
2017-10-29T14:36:23.006Z,75.99
2017-10-29T14:38:51.320Z,75.95
2017-10-29T14:41:20.391Z,75.62
2017-10-29T14:43:48.708Z,75.81
2017-10-29T14:46:17.018Z,75.45
2017-10-29T14:48:45.331Z,74.84
2017-10-29T14:51:14.414Z,75.08
2017-10-29T14:53:42.724Z,74.95
2017-10-29T14:56:11.785Z,74.98
2017-10-29T14:58:40.132Z,74.56
2017-10-29T15:01:08.421Z,72.76
2017-10-29T15:03:36.722Z,71.67
2017-10-29T15:06:05.061Z,71.23
2017-10-29T15:08:33.371Z,70.79
2017-10-29T15:11:01.692Z,70.02
2017-10-29T15:13:30.751Z,68.71
2017-10-29T15:15:59.080Z,67.90
2017-10-29T15:18:27.395Z,67.75
2017-10-29T15:20:55.711Z,67.71
2017-10-29T15:23:24.775Z,66.61
2017-10-29T15:25:53.110Z,66.05
2017-10-29T15:28:21.406Z,65.96
2017-10-29T15:30:50.537Z,65.33
2017-10-29T15:33:18.862Z,65.46
2017-10-29T15:35:47.182Z,65.74
2017-10-29T15:38:15.489Z,65.48
2017-10-29T15:40:44.624Z,66.22
2017-10-29T15:43:12.917Z,66.07
2017-10-29T15:45:41.239Z,66.38
2017-10-29T15:48:10.297Z,66.61
2017-10-29T15:50:38.609Z,66.55
2017-10-29T15:53:07.686Z,66.54
2017-10-29T15:55:36.053Z,66.62
2017-10-29T15:58:04.360Z,66.60
2017-10-29T16:00:33.430Z,66.80
2017-10-29T16:03:01.770Z,66.68
2017-10-29T16:05:30.086Z,66.45
2017-10-29T16:07:58.401Z,66.64
2017-10-29T16:10:27.466Z,66.89
2017-10-29T16:12:55.780Z,66.94
2017-10-29T16:15:24.086Z,67.28
2017-10-29T16:17:52.410Z,67.64
2017-10-29T16:20:21.474Z,67.62
2017-10-29T16:22:49.798Z,67.77
2017-10-29T16:25:18.863Z,68.30
2017-10-29T16:27:47.174Z,68.94
2017-10-29T16:30:16.230Z,69.02
2017-10-29T16:32:44.550Z,69.28
2017-10-29T16:35:12.859Z,69.05
2017-10-29T16:37:41.181Z,68.87
2017-10-29T16:40:09.490Z,69.19
2017-10-29T16:42:37.802Z,69.12
2017-10-29T16:45:06.118Z,69.27
2017-10-29T16:47:35.206Z,69.49
2017-10-29T16:50:04.294Z,69.83
2017-10-29T16:52:32.626Z,70.01
2017-10-29T16:55:00.923Z,69.77
2017-10-29T16:57:29.230Z,69.41
2017-10-29T16:59:57.527Z,68.83
2017-10-29T17:02:26.611Z,68.83
2017-10-29T17:04:54.911Z,68.77
2017-10-29T17:07:23.222Z,68.80
2017-10-29T17:09:51.526Z,68.41
2017-10-29T17:12:19.830Z,68.73
2017-10-29T17:14:48.924Z,68.31
2017-10-29T17:17:17.994Z,68.64
2017-10-29T17:19:47.070Z,69.12
2017-10-29T17:22:15.384Z,69.87
2017-10-29T17:24:44.475Z,70.76
2017-10-29T17:27:12.810Z,71.51
2017-10-29T17:29:41.113Z,72.11
2017-10-29T17:32:09.451Z,72.30
2017-10-29T17:34:37.750Z,72.78
2017-10-29T17:37:06.067Z,73.04
2017-10-29T17:39:35.157Z,73.36
2017-10-29T17:44:38.748Z,74.11
2017-10-29T17:47:07.057Z,74.18
2017-10-29T17:49:36.151Z,74.29
2017-10-29T17:52:05.222Z,74.52
2017-10-29T17:54:33.565Z,74.46
2017-10-29T17:57:01.881Z,74.70
2017-10-29T17:59:30.533Z,75.05
2017-10-29T18:01:58.834Z,75.35
2017-10-29T18:04:27.158Z,75.10
2017-10-29T18:06:55.464Z,75.38
2017-10-29T18:09:23.782Z,75.45
2017-10-29T18:11:52.087Z,75.74
2017-10-29T18:14:21.162Z,75.67
2017-10-29T18:16:49.456Z,75.91
2017-10-29T18:19:18.543Z,75.98
2017-10-29T18:21:47.615Z,76.14
2017-10-29T18:24:15.930Z,76.33
2017-10-29T18:26:45.002Z,76.37
2017-10-29T18:29:13.327Z,76.65
2017-10-29T18:31:41.627Z,77.07
2017-10-29T18:34:09.950Z,77.15
2017-10-29T18:36:39.026Z,77.29
2017-10-29T18:39:07.347Z,77.32
2017-10-29T18:41:35.650Z,77.78
2017-10-29T18:44:03.991Z,77.71
2017-10-29T18:46:32.366Z,77.96
2017-10-29T18:49:00.682Z,77.92
2017-10-29T18:51:28.986Z,77.38
2017-10-29T18:53:57.307Z,77.17
2017-10-29T18:56:25.601Z,77.06
2017-10-29T18:58:53.923Z,76.79
2017-10-29T19:01:22.228Z,76.23
2017-10-29T19:03:50.554Z,75.52
2017-10-29T19:06:18.869Z,75.21
2017-10-29T19:08:47.975Z,75.13
2017-10-29T19:11:17.071Z,74.94
2017-10-29T19:13:45.403Z,74.64
2017-10-29T19:16:13.713Z,73.90
2017-10-29T19:18:42.020Z,73.68
2017-10-29T19:21:10.334Z,73.47
2017-10-29T19:23:38.725Z,73.26
2017-10-29T19:26:07.058Z,73.65
2017-10-29T19:28:35.394Z,73.32
2017-10-29T19:31:03.706Z,73.76
2017-10-29T19:33:32.026Z,74.23
2017-10-29T19:36:00.380Z,74.58
2017-10-29T19:38:28.712Z,74.64
2017-10-29T19:40:57.852Z,74.90
2017-10-29T19:43:26.169Z,75.22
2017-10-29T19:45:54.487Z,75.81
2017-10-29T19:48:22.803Z,75.94
2017-10-29T19:50:51.136Z,76.14
2017-10-29T19:53:19.478Z,76.24
2017-10-29T19:55:52.690Z,76.34
2017-10-29T19:58:21.771Z,76.17
2017-10-29T20:00:50.109Z,76.03
2017-10-29T20:03:18.431Z,76.30
2017-10-29T20:05:46.760Z,76.49
2017-10-29T20:08:15.074Z,75.99
2017-10-29T20:10:43.418Z,75.95
2017-10-29T20:13:11.741Z,75.57
2017-10-29T20:15:40.863Z,75.61
2017-10-29T20:18:09.194Z,75.89
2017-10-29T20:20:37.518Z,75.50
2017-10-29T20:23:05.906Z,75.43
2017-10-29T20:25:34.240Z,75.41
2017-10-29T20:28:02.564Z,75.90
2017-10-29T20:30:30.929Z,76.01
2017-10-29T20:33:00.046Z,76.21
2017-10-29T20:35:28.431Z,76.50
2017-10-29T20:37:56.758Z,76.80
2017-10-29T20:40:25.068Z,77.01
2017-10-29T20:42:53.456Z,76.83
2017-10-29T20:45:21.786Z,77.07
2017-10-29T20:47:50.126Z,77.42
2017-10-29T20:50:18.445Z,77.34
2017-10-29T20:52:46.783Z,77.42
2017-10-29T20:55:15.133Z,77.52
2017-10-29T20:57:43.491Z,77.86
2017-10-29T21:00:11.850Z,78.51
2017-10-29T21:02:40.233Z,78.46
2017-10-29T21:05:08.588Z,78.47
2017-10-29T21:07:36.923Z,78.54
2017-10-29T21:10:05.251Z,78.46
2017-10-29T21:12:33.599Z,78.75
2017-10-29T21:15:01.986Z,78.50
2017-10-29T21:17:30.346Z,78.50
2017-10-29T21:19:58.718Z,78.24
2017-10-29T21:22:27.067Z,78.40
2017-10-29T21:24:56.200Z,78.67
2017-10-29T21:27:24.580Z,78.62
2017-10-29T21:29:52.898Z,78.69
2017-10-29T21:32:21.210Z,78.58
2017-10-29T21:34:50.287Z,78.75
2017-10-29T21:37:18.603Z,78.75
2017-10-29T21:39:46.927Z,78.96
2017-10-29T21:42:15.291Z,79.01
2017-10-29T21:44:44.298Z,79.37
2017-10-29T21:47:12.619Z,79.44
2017-10-29T21:49:40.956Z,79.67
2017-10-29T21:52:09.304Z,79.83
2017-10-29T21:54:37.618Z,79.66
2017-10-29T21:57:05.935Z,79.73
2017-10-29T21:59:34.312Z,79.91
2017-10-29T22:02:02.666Z,79.70
2017-10-29T22:04:31.762Z,80.27
2017-10-29T22:07:00.851Z,80.51
2017-10-29T22:09:29.179Z,80.32
2017-10-29T22:11:57.490Z,79.95
2017-10-29T22:14:25.822Z,80.13
2017-10-29T22:16:54.142Z,80.35
2017-10-29T22:19:22.463Z,80.50
2017-10-29T22:21:50.782Z,80.62
2017-10-29T22:24:19.104Z,80.75
2017-10-29T22:26:48.181Z,80.90
2017-10-29T22:29:16.478Z,80.97
2017-10-29T22:31:45.558Z,81.37
2017-10-29T22:34:13.858Z,81.07
2017-10-29T22:36:42.970Z,80.74
2017-10-29T22:39:11.282Z,80.84
2017-10-29T22:41:39.642Z,80.56
2017-10-29T22:44:07.961Z,80.28
2017-10-29T22:46:36.283Z,80.10
2017-10-29T22:49:04.597Z,80.15
2017-10-29T22:51:32.913Z,80.07
2017-10-29T22:54:01.239Z,80.03
2017-10-29T22:56:29.541Z,79.54
2017-10-29T22:58:57.850Z,79.87
2017-10-29T23:01:26.922Z,79.59
2017-10-29T23:03:55.242Z,79.50
2017-10-29T23:06:41.174Z,79.59
2017-10-29T23:09:22.034Z,79.47
2017-10-29T23:11:50.341Z,79.36
2017-10-29T23:14:18.663Z,79.24
2017-10-29T23:16:46.967Z,79.63
2017-10-29T23:19:15.286Z,79.43
2017-10-29T23:21:44.365Z,79.75
2017-10-29T23:24:12.686Z,79.76
2017-10-29T23:26:40.991Z,79.98
2017-10-29T23:29:09.306Z,80.19
2017-10-29T23:31:38.430Z,80.16
2017-10-29T23:34:06.742Z,79.82
2017-10-29T23:36:35.053Z,80.20
2017-10-29T23:39:04.134Z,80.24
2017-10-29T23:41:32.434Z,80.11
2017-10-29T23:44:01.530Z,80.32
2017-10-29T23:46:30.603Z,80.25
2017-10-29T23:48:58.926Z,80.32
2017-10-29T23:51:27.223Z,80.64
2017-10-29T23:53:55.542Z,80.91
2017-10-29T23:56:23.847Z,80.85
2017-10-29T23:58:52.163Z,80.97
